Time;durP1;ratioP1;P1;durP2;ratioP2;P2;SDS_P1;SDS_P2;PMS_P1;PMS_P2;Temp;Humidity;BMP_temperature;BMP_pressure;BME280_temperature;BME280_humidity;BME280_pressure;Samples;Min_cycle;Max_cycle;Signal;HPM_P1;HPM_P2
2023/11/03 00:00:04;;;;;;;2.38;1.00;;;;;;;7.98;100.00;97483.47;5101364;28;20068;-76
2023/11/03 00:02:30;;;;;;;6.35;1.23;;;;;;;8.00;100.00;97491.16;5113191;28;20043;-75
2023/11/03 00:04:58;;;;;;;4.88;1.00;;;;;;;8.03;100.00;97496.97;5098062;28;20052;-73
2023/11/03 00:07:24;;;;;;;3.10;0.83;;;;;;;8.07;100.00;97497.53;5074544;28;20040;-73
2023/11/03 00:09:50;;;;;;;4.50;1.20;;;;;;;8.09;100.00;97506.03;5092941;28;20317;-73
2023/11/03 00:12:16;;;;;;;3.78;1.17;;;;;;;8.07;100.00;97511.38;5092908;28;20137;-75
2023/11/03 00:14:41;;;;;;;12.57;1.17;;;;;;;8.07;100.00;97518.38;5086931;28;20035;-76
2023/11/03 00:17:07;;;;;;;4.65;1.20;;;;;;;8.07;100.00;97518.38;5086006;28;20042;-76
2023/11/03 00:19:32;;;;;;;5.68;1.45;;;;;;;8.03;100.00;97525.63;5082566;28;20040;-75
2023/11/03 00:21:57;;;;;;;9.13;1.55;;;;;;;7.97;100.00;97518.31;5084822;28;20347;-76
2023/11/03 00:24:23;;;;;;;5.55;1.48;;;;;;;7.96;100.00;97518.44;5082472;28;20042;-75
2023/11/03 00:26:51;;;;;;;4.25;1.20;;;;;;;7.99;100.00;97523.41;5082174;28;20115;-76
2023/11/03 00:29:17;;;;;;;13.65;1.23;;;;;;;8.02;100.00;97528.34;5083426;28;20098;-76
2023/11/03 00:31:45;;;;;;;2.40;1.02;;;;;;;8.05;100.00;97533.31;5081960;28;20025;-75
2023/11/03 00:34:13;;;;;;;5.57;1.40;;;;;;;8.07;100.00;97528.81;5082016;28;20298;-75
2023/11/03 00:36:39;;;;;;;4.63;1.40;;;;;;;8.12;100.00;97534.47;5081619;28;20032;-76
2023/11/03 00:39:05;;;;;;;5.75;1.95;;;;;;;8.06;100.00;97538.41;5082633;28;20035;-76
2023/11/03 00:41:30;;;;;;;1.58;0.80;;;;;;;8.07;100.00;97531.41;5084663;28;20027;-75
2023/11/03 00:43:55;;;;;;;4.15;1.17;;;;;;;8.04;100.00;97537.72;5085209;28;20047;-76
2023/11/03 00:46:21;;;;;;;6.57;2.22;;;;;;;8.03;100.00;97548.25;5087176;28;20497;-76
2023/11/03 00:48:46;;;;;;;5.55;1.27;;;;;;;8.03;100.00;97541.25;5086262;28;20354;-76
2023/11/03 00:51:11;;;;;;;4.05;1.75;;;;;;;8.06;100.00;97559.25;5085308;28;21000;-76
2023/11/03 00:53:37;;;;;;;3.03;1.20;;;;;;;8.03;100.00;97564.72;5086989;28;20073;-76
2023/11/03 00:56:07;;;;;;;3.85;1.60;;;;;;;8.07;100.00;97563.50;5086136;28;20040;-76
2023/11/03 00:58:32;;;;;;;2.58;0.90;;;;;;;8.10;100.00;97570.25;5084694;28;20066;-76
2023/11/03 01:01:02;;;;;;;4.68;1.45;;;;;;;8.14;100.00;97583.88;5069095;28;20043;-76
2023/11/03 01:03:28;;;;;;;8.07;1.40;;;;;;;8.15;100.00;97582.88;5086373;28;20044;-76
2023/11/03 01:05:53;;;;;;;3.88;1.20;;;;;;;8.17;100.00;97576.63;5086824;28;20048;-76
2023/11/03 01:08:20;;;;;;;8.63;1.30;;;;;;;8.18;100.00;97575.66;5066802;28;20021;-76
2023/11/03 01:10:45;;;;;;;9.85;1.92;;;;;;;8.16;100.00;97585.38;5085044;28;20142;-76
2023/11/03 01:13:12;;;;;;;3.65;1.40;;;;;;;8.11;100.00;97599.75;5067420;28;20051;-76
2023/11/03 01:15:38;;;;;;;2.97;1.35;;;;;;;8.13;100.00;97577.84;5068805;28;20029;-76
2023/11/03 01:18:05;;;;;;;3.05;1.52;;;;;;;8.19;100.00;97584.31;5084703;28;20240;-76
2023/11/03 01:20:30;;;;;;;3.55;1.10;;;;;;;8.17;100.00;97588.84;5067426;28;20330;-76
2023/11/03 01:22:56;;;;;;;9.07;1.40;;;;;;;8.14;100.00;97584.69;5060960;28;20024;-76
2023/11/03 01:25:22;;;;;;;5.03;1.13;;;;;;;8.13;100.00;97584.81;5058380;28;20024;-76
2023/11/03 01:27:50;;;;;;;2.88;1.10;;;;;;;8.13;100.00;97584.81;5076142;28;20063;-76
2023/11/03 01:30:17;;;;;;;5.27;1.23;;;;;;;8.15;100.00;97586.34;5076287;28;20078;-76
2023/11/03 01:32:43;;;;;;;9.68;1.23;;;;;;;8.13;100.00;97592.63;5076320;28;20560;-76
2023/11/03 01:35:09;;;;;;;1.85;1.10;;;;;;;8.18;100.00;97593.91;5076811;28;20073;-76
2023/11/03 01:37:35;;;;;;;9.60;1.55;;;;;;;8.15;100.00;97596.78;5076110;28;20391;-76
2023/11/03 01:40:07;;;;;;;4.63;1.65;;;;;;;8.19;100.00;97584.31;5058119;28;20066;-76
2023/11/03 01:42:33;;;;;;;6.75;1.23;;;;;;;8.22;100.00;97591.88;5075783;28;20103;-76
2023/11/03 01:44:59;;;;;;;12.10;1.52;;;;;;;8.21;100.00;97604.06;5076100;28;20044;-76
2023/11/03 01:47:24;;;;;;;5.68;1.48;;;;;;;8.22;100.00;97603.13;5076054;28;20235;-76
2023/11/03 01:49:49;;;;;;;7.65;1.10;;;;;;;8.24;100.00;97601.22;5076000;28;20227;-76
2023/11/03 01:52:15;;;;;;;5.95;1.23;;;;;;;8.27;100.00;97607.97;5076031;28;20070;-76
2023/11/03 01:54:41;;;;;;;8.43;1.60;;;;;;;8.26;100.00;97608.94;5075932;28;20468;-76
2023/11/03 01:57:07;;;;;;;10.48;2.03;;;;;;;8.32;100.00;97602.38;5075990;28;20464;-76
2023/11/03 01:59:32;;;;;;;3.92;1.27;;;;;;;8.27;100.00;97606.16;5075433;28;20028;-76
2023/11/03 02:01:59;;;;;;;4.97;1.10;;;;;;;8.31;100.00;97618.97;5075851;28;20028;-76
2023/11/03 02:04:24;;;;;;;5.78;1.45;;;;;;;8.32;100.00;97597.16;5075840;28;20043;-76
2023/11/03 02:06:50;;;;;;;6.28;1.60;;;;;;;8.35;100.00;97600.34;5075870;28;20048;-76
2023/11/03 02:09:15;;;;;;;7.88;1.50;;;;;;;8.33;100.00;97604.84;5076099;28;20135;-76
2023/11/03 02:11:43;;;;;;;4.20;1.05;;;;;;;8.35;100.00;97599.50;5075371;28;20036;-76
2023/11/03 02:14:08;;;;;;;7.45;1.85;;;;;;;8.34;100.00;97606.50;5075760;28;20037;-76
2023/11/03 02:16:35;;;;;;;8.38;1.70;;;;;;;8.39;100.00;97598.31;5075348;28;20028;-76
2023/11/03 02:19:03;;;;;;;9.15;1.65;;;;;;;8.38;100.00;97600.06;5075864;28;20036;-76
2023/11/03 02:21:29;;;;;;;5.15;1.80;;;;;;;8.40;100.00;97613.81;5075387;28;20032;-76
2023/11/03 02:23:54;;;;;;;4.45;1.60;;;;;;;8.44;100.00;97614.41;5075473;28;20040;-76
2023/11/03 02:26:20;;;;;;;12.65;1.83;;;;;;;8.45;100.00;97618.66;5075346;28;20036;-75
2023/11/03 02:28:45;;;;;;;9.30;2.17;;;;;;;8.46;100.00;97617.72;5074929;28;20036;-76
2023/11/03 02:31:11;;;;;;;14.65;2.72;;;;;;;8.41;100.00;97599.81;5075236;28;20036;-77
2023/11/03 02:33:37;;;;;;;7.13;1.85;;;;;;;8.42;100.00;97618.91;5056757;28;20299;-76
2023/11/03 02:36:03;;;;;;;12.52;2.67;;;;;;;8.39;100.00;97634.81;5075429;28;20043;-76
2023/11/03 02:38:29;;;;;;;14.65;2.38;;;;;;;8.37;100.00;97641.94;5074870;28;20295;-76
2023/11/03 02:40:55;;;;;;;8.30;1.92;;;;;;;8.32;100.00;97639.69;5075137;28;20036;-76
2023/11/03 02:43:21;;;;;;;11.98;1.83;;;;;;;8.33;100.00;97651.78;5056615;28;20275;-76
2023/11/03 02:45:48;;;;;;;14.65;1.88;;;;;;;8.30;100.00;97641.59;5074664;28;20054;-76
2023/11/03 02:48:13;;;;;;;9.68;1.67;;;;;;;8.33;100.00;97656.16;5075034;28;20078;-76
2023/11/03 02:50:38;;;;;;;12.13;2.22;;;;;;;8.32;100.00;97657.13;5074982;28;20237;-76
2023/11/03 02:53:04;;;;;;;8.27;1.85;;;;;;;8.37;100.00;97670.63;5074731;28;20083;-76
2023/11/03 02:55:29;;;;;;;9.95;1.70;;;;;;;8.37;100.00;97679.25;5074351;28;20028;-76
2023/11/03 02:57:55;;;;;;;11.05;2.13;;;;;;;8.35;100.00;97682.94;5074817;28;20236;-74
2023/11/03 03:00:22;;;;;;;7.88;1.60;;;;;;;8.37;100.00;97687.09;5074754;28;20199;-76
2023/11/03 03:02:47;;;;;;;7.90;1.42;;;;;;;8.35;100.00;97690.75;5056607;28;20071;-75
2023/11/03 03:05:13;;;;;;;11.45;1.60;;;;;;;8.31;100.00;97684.97;5073692;28;20040;-75
2023/11/03 03:07:39;;;;;;;8.32;1.25;;;;;;;8.31;100.00;97663.28;5074133;28;20367;-75
2023/11/03 03:10:05;;;;;;;8.93;1.33;;;;;;;8.27;100.00;97662.69;5074428;28;20086;-75
2023/11/03 03:12:30;;;;;;;5.25;1.50;;;;;;;8.26;100.00;97659.28;5074267;28;20028;-75
2023/11/03 03:14:56;;;;;;;6.38;1.55;;;;;;;8.29;100.00;97660.78;5074216;28;20334;-75
2023/11/03 03:17:21;;;;;;;20.70;1.92;;;;;;;8.24;100.00;97678.59;5074424;28;20323;-75
2023/11/03 03:19:46;;;;;;;6.07;1.45;;;;;;;8.25;100.00;97673.25;5074004;28;20036;-75
2023/11/03 03:22:12;;;;;;;9.73;2.03;;;;;;;8.26;100.00;97679.31;5074069;28;20116;-75
2023/11/03 03:24:37;;;;;;;5.38;1.33;;;;;;;8.32;100.00;97677.97;5074311;28;20052;-75
2023/11/03 03:27:02;;;;;;;9.25;1.30;;;;;;;8.31;100.00;97674.53;5074034;28;20032;-75
2023/11/03 03:29:28;;;;;;;13.52;1.60;;;;;;;8.30;100.00;97695.53;5073845;28;20040;-75
2023/11/03 03:31:53;;;;;;;6.38;1.60;;;;;;;8.34;100.00;97689.94;5074367;28;20017;-75
2023/11/03 03:34:19;;;;;;;8.05;1.60;;;;;;;8.41;100.00;97700.69;5074100;28;20347;-76
2023/11/03 03:36:45;;;;;;;5.45;1.35;;;;;;;8.42;100.00;97718.00;5073846;28;20086;-75
2023/11/03 03:39:10;;;;;;;16.65;2.38;;;;;;;8.43;100.00;97717.91;5073927;28;20711;-75
2023/11/03 03:41:35;;;;;;;13.18;1.63;;;;;;;8.43;100.00;97710.06;5073704;28;20028;-75
2023/11/03 03:44:01;;;;;;;16.83;1.98;;;;;;;8.46;100.00;97706.41;5073980;28;20060;-75
2023/11/03 03:46:26;;;;;;;15.05;1.63;;;;;;;8.49;100.00;97726.19;5074051;28;20038;-75
2023/11/03 03:48:51;;;;;;;9.90;1.85;;;;;;;8.51;100.00;97719.88;5074442;28;20276;-75
2023/11/03 03:51:19;;;;;;;7.20;1.63;;;;;;;8.47;100.00;97713.25;5074199;28;20366;-76
2023/11/03 03:53:45;;;;;;;11.07;2.73;;;;;;;8.48;100.00;97727.13;5073609;28;20038;-75
2023/11/03 03:56:10;;;;;;;10.57;1.95;;;;;;;8.50;100.00;97731.28;5073719;28;20040;-75
2023/11/03 03:58:38;;;;;;;10.43;1.70;;;;;;;8.53;100.00;97738.00;5073761;28;20505;-75
2023/11/03 04:01:04;;;;;;;9.07;1.50;;;;;;;8.55;100.00;97741.31;5073992;28;20267;-75
2023/11/03 04:03:29;;;;;;;9.48;2.20;;;;;;;8.56;100.00;97741.19;5073590;28;20036;-75
2023/11/03 04:05:55;;;;;;;8.60;2.10;;;;;;;8.57;100.00;97736.81;5052186;28;20060;-75
2023/11/03 04:08:20;;;;;;;14.65;2.25;;;;;;;8.63;100.00;97749.34;5053704;28;20045;-75
2023/11/03 04:10:45;;;;;;;11.25;2.00;;;;;;;8.66;100.00;97746.50;5053289;28;20179;-76
2023/11/03 04:13:10;;;;;;;20.08;3.30;;;;;;;8.67;100.00;97755.16;5053547;28;20087;-75
2023/11/03 04:15:36;;;;;;;23.63;2.97;;;;;;;8.70;100.00;97770.56;5053503;28;20040;-75
2023/11/03 04:18:01;;;;;;;21.65;2.92;;;;;;;8.73;100.00;97768.53;5057664;28;20270;-75
2023/11/03 04:20:26;;;;;;;15.25;2.40;;;;;;;8.69;100.00;97771.50;5057343;28;20028;-75
2023/11/03 04:22:52;;;;;;;25.65;3.05;;;;;;;8.69;100.00;97784.53;5057717;28;20059;-75
2023/11/03 04:25:17;;;;;;;13.40;2.25;;;;;;;8.71;100.00;97785.25;5056474;28;20060;-75
2023/11/03 04:27:43;;;;;;;17.15;1.98;;;;;;;8.73;100.00;97783.34;5057751;28;20028;-75
2023/11/03 04:30:09;;;;;;;12.55;2.03;;;;;;;8.69;100.00;97771.50;5056059;28;20099;-75
2023/11/03 04:32:34;;;;;;;18.63;3.17;;;;;;;8.69;100.00;97782.75;5057014;28;20100;-75
2023/11/03 04:34:59;;;;;;;17.88;2.92;;;;;;;8.68;100.00;97782.88;5057519;28;20033;-75
2023/11/03 04:37:24;;;;;;;18.80;2.60;;;;;;;8.67;100.00;97782.06;5057299;28;20037;-76
2023/11/03 04:39:50;;;;;;;12.80;1.92;;;;;;;8.65;100.00;97805.66;5057186;28;20037;-75
2023/11/03 04:42:15;;;;;;;15.60;2.25;;;;;;;8.61;100.00;97793.00;5056877;28;20024;-75
2023/11/03 04:44:40;;;;;;;15.23;2.40;;;;;;;8.64;100.00;97795.34;5056688;28;20082;-75
2023/11/03 04:47:06;;;;;;;15.48;2.10;;;;;;;8.67;100.00;97810.75;5057120;28;20059;-75
2023/11/03 04:49:32;;;;;;;18.42;2.88;;;;;;;8.61;100.00;97812.09;5056678;28;20235;-75
2023/11/03 04:51:57;;;;;;;9.93;2.05;;;;;;;8.63;100.00;97807.56;5057144;28;20319;-75
2023/11/03 04:54:22;;;;;;;21.10;2.40;;;;;;;8.62;100.00;97805.06;5056797;28;20041;-75
2023/11/03 04:56:48;;;;;;;15.77;2.53;;;;;;;8.63;100.00;97812.78;5056817;28;20374;-75
2023/11/03 04:59:13;;;;;;;11.50;2.15;;;;;;;8.63;100.00;97804.13;5056809;28;20036;-75
2023/11/03 05:01:38;;;;;;;13.52;1.95;;;;;;;8.61;100.00;97808.66;5056696;28;20029;-75
2023/11/03 05:04:04;;;;;;;23.15;2.45;;;;;;;8.61;100.00;97806.03;5056373;28;20048;-75
2023/11/03 05:06:29;;;;;;;15.15;2.20;;;;;;;8.61;100.00;97809.47;5073886;28;20059;-75
2023/11/03 05:08:55;;;;;;;13.43;2.13;;;;;;;8.65;100.00;97816.09;5077276;28;20033;-75
2023/11/03 05:11:21;;;;;;;14.10;1.80;;;;;;;8.65;100.00;97826.53;5077073;28;20275;-75
2023/11/03 05:13:47;;;;;;;14.02;2.47;;;;;;;8.68;100.00;97830.69;5076481;28;20212;-75
2023/11/03 05:16:13;;;;;;;17.20;2.28;;;;;;;8.68;100.00;97833.28;5076990;28;20051;-75
2023/11/03 05:18:38;;;;;;;17.08;3.05;;;;;;;8.67;100.00;97846.47;5076363;28;20056;-75
2023/11/03 05:21:04;;;;;;;6.38;1.67;;;;;;;8.70;100.00;97841.81;5076436;28;20032;-75
2023/11/03 05:23:30;;;;;;;10.90;1.70;;;;;;;8.78;100.00;97846.41;5076257;28;20393;-75
2023/11/03 05:25:56;;;;;;;14.38;2.47;;;;;;;8.75;100.00;97841.44;5076675;28;20037;-75
2023/11/03 05:28:21;;;;;;;16.77;3.00;;;;;;;8.69;100.00;97854.97;5075275;28;20042;-75
2023/11/03 05:30:47;;;;;;;10.55;1.73;;;;;;;8.70;100.00;97859.25;5076102;28;20039;-75
2023/11/03 05:33:13;;;;;;;10.40;1.75;;;;;;;8.73;100.00;97854.63;5076074;28;20037;-75
2023/11/03 05:35:40;;;;;;;13.18;2.85;;;;;;;8.72;100.00;97863.41;5076525;28;20036;-75
2023/11/03 05:38:05;;;;;;;17.73;2.60;;;;;;;8.70;100.00;97867.09;5076245;28;20362;-75
2023/11/03 05:40:31;;;;;;;7.93;1.77;;;;;;;8.70;100.00;97867.09;5075856;28;20348;-75
2023/11/03 05:42:56;;;;;;;11.90;2.58;;;;;;;8.66;100.00;97876.94;5076159;28;20052;-75
2023/11/03 05:45:21;;;;;;;14.30;2.00;;;;;;;8.63;100.00;97875.38;5075994;28;20032;-75
2023/11/03 05:47:47;;;;;;;11.98;2.00;;;;;;;8.63;100.00;97891.03;5075714;28;20059;-75
2023/11/03 05:50:12;;;;;;;12.05;1.98;;;;;;;8.65;100.00;97896.16;5075985;28;20126;-75
2023/11/03 05:52:37;;;;;;;10.57;2.03;;;;;;;8.61;100.00;97902.56;5075719;28;20047;-75
2023/11/03 05:55:03;;;;;;;13.82;1.52;;;;;;;8.65;100.00;97911.78;5076190;28;20104;-75
2023/11/03 05:57:29;;;;;;;11.80;1.83;;;;;;;8.67;100.00;97916.91;5075834;28;20071;-76
2023/11/03 05:59:54;;;;;;;14.00;3.10;;;;;;;8.68;100.00;97927.22;5075915;28;20226;-75
2023/11/03 06:02:20;;;;;;;13.52;2.15;;;;;;;8.67;100.00;97935.97;5057764;28;20347;-75
2023/11/03 06:04:45;;;;;;;17.17;2.58;;;;;;;8.71;100.00;97928.75;5075685;28;20231;-75
2023/11/03 06:07:11;;;;;;;8.68;1.90;;;;;;;8.70;100.00;97942.75;5076014;28;20170;-75
2023/11/03 06:09:37;;;;;;;14.13;2.38;;;;;;;8.69;100.00;97957.56;5075513;28;20223;-75
2023/11/03 06:12:04;;;;;;;19.85;2.97;;;;;;;8.71;100.00;97944.41;5075604;28;20365;-75
2023/11/03 06:14:29;;;;;;;11.95;2.35;;;;;;;8.70;100.00;97945.38;5075124;28;20044;-75
2023/11/03 06:16:56;;;;;;;10.82;2.20;;;;;;;8.65;100.00;97941.31;5057891;28;20032;-75
2023/11/03 06:19:21;;;;;;;15.85;3.17;;;;;;;8.62;100.00;97951.16;5075536;28;20123;-76
2023/11/03 06:21:47;;;;;;;12.40;2.63;;;;;;;8.58;100.00;97957.56;5075164;28;20029;-75
2023/11/03 06:24:12;;;;;;;13.15;2.35;;;;;;;8.57;100.00;97961.16;5075622;28;20358;-76
2023/11/03 06:26:38;;;;;;;13.18;2.75;;;;;;;8.56;100.00;97951.66;5075047;28;20228;-75
2023/11/03 06:29:03;;;;;;;14.90;2.60;;;;;;;8.57;100.00;97969.78;5074798;28;20127;-75
2023/11/03 06:31:31;;;;;;;10.55;1.83;;;;;;;8.58;100.00;97970.63;5074789;28;20224;-75
2023/11/03 06:33:56;;;;;;;13.27;2.60;;;;;;;8.55;100.00;97976.91;5074955;28;20066;-76
2023/11/03 06:36:22;;;;;;;19.77;2.65;;;;;;;8.48;100.00;97975.72;5056816;28;20040;-75
2023/11/03 06:38:47;;;;;;;18.70;3.13;;;;;;;8.47;100.00;97996.72;5073948;28;20040;-75
2023/11/03 06:41:13;;;;;;;13.57;2.30;;;;;;;8.48;100.00;97994.00;5074921;28;20035;-75
2023/11/03 06:43:39;;;;;;;12.73;2.50;;;;;;;8.51;100.00;97988.50;5074426;28;20111;-75
2023/11/03 06:46:05;;;;;;;11.20;2.17;;;;;;;8.51;100.00;97993.72;5074868;28;20040;-75
2023/11/03 06:48:31;;;;;;;14.75;2.97;;;;;;;8.51;100.00;97998.13;5074841;28;20025;-75
2023/11/03 06:50:56;;;;;;;12.85;2.80;;;;;;;8.49;100.00;98002.63;5074999;28;20351;-75
2023/11/03 06:53:24;;;;;;;17.95;2.75;;;;;;;8.45;100.00;98018.50;5074607;28;20038;-75
2023/11/03 06:55:49;;;;;;;11.75;2.65;;;;;;;8.47;100.00;98026.22;5074181;28;20063;-75
2023/11/03 06:58:14;;;;;;;21.42;3.33;;;;;;;8.41;100.00;98019.66;5074610;28;20040;-76
2023/11/03 07:00:42;;;;;;;10.57;2.45;;;;;;;8.47;100.00;98026.22;5074206;28;20024;-75
2023/11/03 07:03:08;;;;;;;10.55;2.55;;;;;;;8.49;100.00;98032.16;5074781;28;20103;-75
2023/11/03 07:05:36;;;;;;;12.95;2.75;;;;;;;8.49;100.00;98029.53;5075081;28;20062;-75
2023/11/03 07:08:01;;;;;;;17.33;2.53;;;;;;;8.50;100.00;98039.03;5074280;28;20059;-75
2023/11/03 07:10:27;;;;;;;15.15;2.60;;;;;;;8.51;100.00;98038.06;5077884;28;20035;-75
2023/11/03 07:12:52;;;;;;;17.73;2.83;;;;;;;8.53;100.00;98037.97;5094423;28;20042;-75
2023/11/03 07:15:18;;;;;;;9.85;1.85;;;;;;;8.57;100.00;98040.22;5093699;28;20285;-75
2023/11/03 07:17:44;;;;;;;13.85;2.22;;;;;;;8.58;100.00;98047.09;5094121;28;20046;-75
2023/11/03 07:20:10;;;;;;;16.45;1.73;;;;;;;8.58;100.00;98048.88;5093334;28;20032;-76
2023/11/03 07:22:35;;;;;;;18.92;3.00;;;;;;;8.61;100.00;98053.88;5093876;28;20066;-75
2023/11/03 07:25:00;;;;;;;10.18;1.80;;;;;;;8.62;100.00;98058.97;5076390;28;20039;-75
2023/11/03 07:27:26;;;;;;;10.57;1.80;;;;;;;8.61;100.00;98059.09;5093569;28;20146;-75
2023/11/03 07:29:52;;;;;;;13.43;2.22;;;;;;;8.62;100.00;98072.03;5093398;28;20323;-75
2023/11/03 07:32:17;;;;;;;13.23;2.58;;;;;;;8.61;100.00;98072.94;5093230;28;20394;-75
2023/11/03 07:34:42;;;;;;;13.77;2.88;;;;;;;8.61;100.00;98077.34;5092600;28;20052;-75
2023/11/03 07:37:08;;;;;;;18.10;1.90;;;;;;;8.65;100.00;98081.38;5092846;28;20336;-75
2023/11/03 07:39:34;;;;;;;12.90;2.63;;;;;;;8.69;100.00;98085.41;5092997;28;20027;-75
2023/11/03 07:41:59;;;;;;;11.68;2.25;;;;;;;8.70;100.00;98087.06;5094125;28;20366;-75
2023/11/03 07:44:25;;;;;;;12.73;2.22;;;;;;;8.70;100.00;98091.47;5094006;28;20081;-75
2023/11/03 07:46:50;;;;;;;13.45;2.42;;;;;;;8.71;100.00;98088.72;5094288;28;20027;-76
2023/11/03 07:49:17;;;;;;;16.17;2.88;;;;;;;8.68;100.00;98109.00;5094279;28;20075;-75
2023/11/03 07:51:44;;;;;;;16.70;2.40;;;;;;;8.69;100.00;98100.25;5093648;28;20226;-76
2023/11/03 07:54:09;;;;;;;16.15;2.45;;;;;;;8.69;100.00;98106.28;5094639;28;20421;-75
2023/11/03 07:56:34;;;;;;;16.85;2.10;;;;;;;8.69;100.00;98108.88;5093848;28;20031;-75
2023/11/03 07:59:00;;;;;;;15.43;2.42;;;;;;;8.65;100.00;98118.72;5093781;28;20035;-75
2023/11/03 08:01:25;;;;;;;13.55;2.33;;;;;;;8.62;100.00;98126.81;5094166;28;20141;-75
2023/11/03 08:03:51;;;;;;;13.88;2.83;;;;;;;8.64;100.00;98118.84;5093585;28;20040;-75
2023/11/03 08:06:16;;;;;;;11.18;1.60;;;;;;;8.64;100.00;98118.84;5072190;28;20040;-75
2023/11/03 08:08:42;;;;;;;16.52;3.05;;;;;;;8.70;100.00;98130.59;5073672;28;20056;-75
2023/11/03 08:11:08;;;;;;;15.65;1.90;;;;;;;8.70;100.00;98128.81;5073616;28;20028;-75
2023/11/03 08:13:34;;;;;;;23.65;2.28;;;;;;;8.74;100.00;98140.69;5069988;28;20103;-75
2023/11/03 08:15:59;;;;;;;15.00;2.25;;;;;;;8.77;100.00;98137.03;5073893;28;20123;-75
2023/11/03 08:18:25;;;;;;;9.63;2.30;;;;;;;8.78;100.00;98142.09;5073527;28;20032;-75
2023/11/03 08:20:50;;;;;;;17.02;2.15;;;;;;;8.77;100.00;98145.69;5073356;28;20044;-75
2023/11/03 08:23:16;;;;;;;10.85;2.05;;;;;;;8.82;100.00;98151.38;5073693;28;20032;-76
2023/11/03 08:25:43;;;;;;;9.73;2.13;;;;;;;8.80;100.00;98150.66;5073564;28;20393;-75
2023/11/03 08:28:09;;;;;;;16.88;2.10;;;;;;;8.82;100.00;98166.19;5073897;28;20036;-75
2023/11/03 08:30:35;;;;;;;9.25;2.55;;;;;;;8.82;100.00;98153.13;5073631;28;20092;-75
2023/11/03 08:33:01;;;;;;;14.95;2.67;;;;;;;8.81;100.00;98165.38;5072187;28;20033;-75
2023/11/03 08:35:27;;;;;;;13.18;2.53;;;;;;;8.81;100.00;98167.16;5073797;28;20059;-75
2023/11/03 08:37:53;;;;;;;8.32;1.98;;;;;;;8.84;100.00;98172.97;5073594;28;20082;-76
2023/11/03 08:40:20;;;;;;;20.13;2.05;;;;;;;8.80;100.00;98175.91;5073231;28;20040;-76
2023/11/03 08:42:46;;;;;;;15.25;2.50;;;;;;;8.80;100.00;98173.31;5073108;28;20036;-76
2023/11/03 08:45:12;;;;;;;14.95;1.90;;;;;;;8.81;100.00;98182.81;5072942;28;20126;-76
2023/11/03 08:47:41;;;;;;;12.30;2.45;;;;;;;8.79;100.00;98187.31;5073228;28;20028;-75
2023/11/03 08:50:14;;;;;;;16.17;1.90;;;;;;;8.78;100.00;98194.28;5073491;28;20037;-75
2023/11/03 08:52:40;;;;;;;12.55;2.20;;;;;;;8.78;100.00;98190.84;5073247;28;20384;-76
2023/11/03 08:55:07;;;;;;;23.08;3.90;;;;;;;8.77;100.00;98203.09;5073606;28;20036;-75
2023/11/03 08:57:37;;;;;;;11.38;2.33;;;;;;;8.83;100.00;98212.22;5073014;28;20048;-75
2023/11/03 09:00:09;;;;;;;19.00;2.50;;;;;;;8.78;100.00;98209.13;5073201;28;20071;-75
2023/11/03 09:02:36;;;;;;;25.02;3.45;;;;;;;8.78;100.00;98214.34;5074564;28;20075;-75
2023/11/03 09:05:03;;;;;;;17.05;2.25;;;;;;;8.78;100.00;98223.00;5081731;28;20082;-75
2023/11/03 09:07:29;;;;;;;9.82;2.28;;;;;;;8.83;100.00;98222.66;5096992;28;20095;-75
2023/11/03 09:09:55;;;;;;;11.18;2.10;;;;;;;8.90;100.00;98228.28;5077963;28;20254;-75
2023/11/03 09:12:20;;;;;;;26.95;3.53;;;;;;;8.90;100.00;98233.50;5086825;28;20067;-75
2023/11/03 09:14:46;;;;;;;16.60;2.70;;;;;;;8.92;100.00;98235.03;5090615;28;20077;-75
2023/11/03 09:17:12;;;;;;;18.45;2.60;;;;;;;8.93;100.00;98235.84;5082956;28;20036;-75
2023/11/03 09:19:38;;;;;;;13.65;2.80;;;;;;;8.97;100.00;98240.72;5088644;28;20085;-76
2023/11/03 09:22:03;;;;;;;13.68;1.88;;;;;;;8.98;100.00;98245.00;5081315;28;20327;-76
2023/11/03 09:24:29;;;;;;;13.98;2.13;;;;;;;8.99;100.00;98240.63;5087418;28;20210;-76
2023/11/03 09:26:54;;;;;;;15.35;2.45;;;;;;;8.97;100.00;98245.97;5084164;28;20032;-75
2023/11/03 09:29:19;;;;;;;12.85;2.42;;;;;;;8.99;100.00;98248.44;5089393;28;20035;-76
2023/11/03 09:31:47;;;;;;;13.93;2.28;;;;;;;9.00;100.00;98240.50;5087083;28;20035;-76
2023/11/03 09:34:13;;;;;;;11.55;2.08;;;;;;;9.02;100.00;98246.44;5087499;28;20028;-75
2023/11/03 09:36:38;;;;;;;14.30;2.63;;;;;;;9.03;100.00;98250.69;5087014;28;20028;-75
2023/11/03 09:39:04;;;;;;;10.98;1.92;;;;;;;9.02;100.00;98261.25;5083109;28;20082;-76
2023/11/03 09:41:38;;;;;;;14.57;2.17;;;;;;;8.99;100.00;98257.09;5085307;28;20028;-75
2023/11/03 09:44:05;;;;;;;12.32;2.05;;;;;;;9.02;100.00;98264.72;5085064;28;20386;-75
2023/11/03 09:46:33;;;;;;;16.30;2.50;;;;;;;8.97;100.00;98260.78;5084916;28;20359;-75
2023/11/03 09:48:58;;;;;;;12.05;2.45;;;;;;;9.00;100.00;98261.41;5086665;28;20043;-75
2023/11/03 09:51:28;;;;;;;13.80;2.45;;;;;;;8.98;100.00;98263.25;5088067;28;20023;-76
2023/11/03 09:53:57;;;;;;;15.13;2.33;;;;;;;9.01;100.00;98275.28;5085533;28;20395;-75
2023/11/03 09:56:22;;;;;;;;;;;;;;;9.05;100.00;98275.88;5086437;28;20291;-75
2023/11/03 09:58:48;;;;;;;10.93;2.33;;;;;;;9.01;100.00;98268.25;5086034;28;19966;-75
2023/11/03 10:01:16;;;;;;;12.63;2.47;;;;;;;9.05;100.00;98278.50;5085236;28;20020;-75
2023/11/03 10:03:43;;;;;;;10.23;2.25;;;;;;;9.11;100.00;98273.63;5084278;28;20238;-75
2023/11/03 10:06:08;;;;;;;8.18;1.55;;;;;;;9.15;100.00;98276.81;5086440;28;20047;-75
2023/11/03 10:08:39;;;;;;;11.70;2.60;;;;;;;9.15;100.00;98280.28;5083421;28;20037;-76
2023/11/03 10:11:05;;;;;;;12.50;2.38;;;;;;;9.20;100.00;98274.69;5083918;28;20091;-75
2023/11/03 10:13:32;;;;;;;18.42;3.05;;;;;;;9.22;100.00;98271.03;5085585;28;20040;-75
2023/11/03 10:15:57;;;;;;;11.93;2.00;;;;;;;9.26;100.00;98269.03;5086496;28;20220;-75
2023/11/03 10:18:24;;;;;;;22.33;2.85;;;;;;;9.32;100.00;98272.94;5085572;28;20038;-75
2023/11/03 10:20:54;;;;;;;17.67;2.83;;;;;;;9.37;100.00;98281.28;5094438;28;20032;-75
2023/11/03 10:23:22;;;;;;;14.48;2.45;;;;;;;9.38;100.00;98275.91;5093266;28;20387;-76
2023/11/03 10:25:50;;;;;;;14.65;2.85;;;;;;;9.39;100.00;98272.34;5094912;28;20032;-76
2023/11/03 10:28:18;;;;;;;12.65;2.40;;;;;;;9.40;100.00;98268.81;5082081;28;20331;-76
2023/11/03 10:30:52;;;;;;;11.30;2.42;;;;;;;9.33;100.00;98272.00;5094137;28;20051;-75
2023/11/03 10:33:19;;;;;;;10.15;2.03;;;;;;;9.31;100.00;98274.72;5090506;28;20035;-75
2023/11/03 10:35:46;;;;;;;22.60;4.07;;;;;;;9.36;100.00;98277.81;5094738;28;20317;-75
2023/11/03 10:38:12;;;;;;;8.63;1.83;;;;;;;9.38;100.00;98262.03;5084871;28;20265;-76
2023/11/03 10:40:37;;;;;;;10.88;1.95;;;;;;;9.41;100.00;98272.25;5094350;28;20031;-76
2023/11/03 10:43:05;;;;;;;17.45;3.85;;;;;;;9.41;100.00;98262.63;5093264;28;20034;-76
2023/11/03 10:45:36;;;;;;;8.30;1.88;;;;;;;9.46;100.00;98279.72;5094094;28;20264;-76
2023/11/03 10:48:14;;;;;;;15.98;2.80;;;;;;;9.48;100.00;98288.25;5084502;28;20342;-75
2023/11/03 10:50:54;;;;;;;;;;;;;;;9.51;100.00;98283.63;5094445;28;20040;-75
2023/11/03 10:53:46;;;;;;;16.08;2.92;;;;;;;9.55;100.00;98284.22;5093047;28;19923;-76
2023/11/03 10:56:12;;;;;;;13.50;2.13;;;;;;;9.60;100.00;98300.38;5090944;28;20039;-76
2023/11/03 10:58:39;;;;;;;13.80;2.10;;;;;;;9.64;100.00;98295.75;5091000;28;20040;-75
2023/11/03 11:01:29;;;;;;;17.60;2.25;;;;;;;9.66;100.00;98292.09;5092517;28;20319;-76
2023/11/03 11:04:02;;;;;;;8.02;2.00;;;;;;;9.69;100.00;98301.47;5078322;28;20036;-75
2023/11/03 11:06:34;;;;;;;10.10;2.25;;;;;;;9.71;100.00;98296.94;5082374;28;20376;-76
2023/11/03 11:09:10;;;;;;;8.13;2.10;;;;;;;9.72;100.00;98304.69;5088137;28;20032;-76
2023/11/03 11:11:37;;;;;;;13.13;2.30;;;;;;;9.72;100.00;98309.06;5087463;28;20036;-76
2023/11/03 11:14:17;;;;;;;12.90;2.25;;;;;;;9.75;100.00;98296.59;5079547;28;20422;-76
2023/11/03 11:16:42;;;;;;;12.82;2.15;;;;;;;9.73;100.00;98321.19;5088704;28;20035;-75
2023/11/03 11:19:14;;;;;;;9.27;2.25;;;;;;;9.76;100.00;98313.94;5092116;28;20024;-75
2023/11/03 11:21:52;;;;;;;12.05;2.05;;;;;;;9.78;100.00;98311.22;5089336;28;20304;-76
2023/11/03 11:24:21;;;;;;;5.50;1.85;;;;;;;9.81;100.00;98316.22;5084631;28;20384;-76